createdAt,value
2018-06-24T00:00:24.140Z,4
2018-06-24T00:01:33.886Z,4
2018-06-24T00:02:43.628Z,4
2018-06-24T00:03:53.373Z,4
2018-06-24T00:05:03.106Z,4
2018-06-24T00:06:12.851Z,4
2018-06-24T00:07:22.865Z,4
2018-06-24T00:08:32.870Z,4
2018-06-24T00:09:42.878Z,4
2018-06-24T00:10:52.624Z,4
2018-06-24T00:12:02.366Z,4
2018-06-24T00:13:12.114Z,0
2018-06-24T00:14:22.127Z,4
2018-06-24T00:15:31.920Z,4
2018-06-24T00:16:41.655Z,4
2018-06-24T00:17:51.656Z,4
2018-06-24T00:19:01.177Z,4
2018-06-24T00:20:10.390Z,4
2018-06-24T00:21:20.401Z,4
2018-06-24T00:22:30.411Z,4
2018-06-24T00:23:39.885Z,8
2018-06-24T00:24:49.920Z,8
2018-06-24T00:25:59.933Z,4
2018-06-24T00:27:09.138Z,4
2018-06-24T00:28:19.144Z,4
2018-06-24T00:29:28.888Z,4
2018-06-24T00:30:38.661Z,8
2018-06-24T00:31:48.399Z,8
2018-06-24T00:32:58.411Z,8
2018-06-24T00:34:08.159Z,4
2018-06-24T00:35:17.910Z,8
2018-06-24T00:36:27.650Z,8
2018-06-24T00:37:37.399Z,8
2018-06-24T00:38:47.140Z,8
2018-06-24T00:39:57.150Z,8
2018-06-24T00:41:07.156Z,8
2018-06-24T00:42:16.898Z,12
2018-06-24T00:43:26.369Z,8
2018-06-24T00:44:36.377Z,12
2018-06-24T00:45:46.122Z,12
2018-06-24T00:46:56.135Z,12
2018-06-24T00:48:06.136Z,12
2018-06-24T00:49:15.610Z,12
2018-06-24T00:50:25.618Z,16
2018-06-24T00:51:34.821Z,16
2018-06-24T00:52:44.830Z,16
2018-06-24T00:53:54.842Z,16
2018-06-24T00:55:04.055Z,16
2018-06-24T00:56:13.796Z,16
2018-06-24T00:57:23.802Z,20
2018-06-24T00:58:33.281Z,24
2018-06-24T00:59:43.019Z,24
2018-06-24T01:00:53.028Z,24
2018-06-24T01:02:02.497Z,24
2018-06-24T01:03:12.235Z,24
2018-06-24T01:04:21.711Z,28
2018-06-24T01:05:31.455Z,28
2018-06-24T01:06:41.195Z,32
2018-06-24T01:07:50.944Z,32
2018-06-24T01:09:00.693Z,36
2018-06-24T01:10:10.719Z,40
2018-06-24T01:11:20.483Z,40
2018-06-24T01:12:29.955Z,44
2018-06-24T01:13:39.699Z,44
2018-06-24T01:14:49.711Z,48
2018-06-24T01:15:59.726Z,52
2018-06-24T01:17:09.738Z,56
2018-06-24T01:18:19.479Z,60
2018-06-24T01:19:28.953Z,60
2018-06-24T01:20:38.956Z,64
2018-06-24T01:21:48.959Z,72
2018-06-24T01:22:58.703Z,76
2018-06-24T01:24:08.446Z,80
2018-06-24T01:25:18.182Z,84
2018-06-24T01:26:27.919Z,88
2018-06-24T01:27:37.927Z,96
2018-06-24T01:28:47.935Z,100
2018-06-24T01:29:57.674Z,104
2018-06-24T01:31:07.458Z,112
2018-06-24T01:32:17.203Z,120
2018-06-24T01:33:27.205Z,124
2018-06-24T01:34:37.206Z,132
2018-06-24T01:35:47.210Z,140
2018-06-24T01:36:56.697Z,148
2018-06-24T01:38:06.713Z,152
2018-06-24T01:39:16.721Z,164
2018-06-24T01:40:26.466Z,172
2018-06-24T01:41:36.475Z,180
2018-06-24T01:42:46.491Z,192
2018-06-24T01:43:56.500Z,200
2018-06-24T01:45:06.010Z,208
2018-06-24T01:46:15.749Z,220
2018-06-24T01:47:25.817Z,228
2018-06-24T01:48:35.859Z,244
2018-06-24T01:49:45.921Z,256
2018-06-24T01:50:55.927Z,268
2018-06-24T01:52:05.404Z,280
2018-06-24T01:53:15.419Z,292
2018-06-24T01:54:24.897Z,304
2018-06-24T01:55:34.912Z,320
2018-06-24T01:56:44.920Z,332
2018-06-24T01:57:54.929Z,352
2018-06-24T01:59:04.397Z,364
2018-06-24T02:00:14.407Z,380
2018-06-24T02:01:24.425Z,404
2018-06-24T02:02:37.937Z,424
2018-06-24T02:03:47.945Z,444
2018-06-24T02:04:57.954Z,460
2018-06-24T02:06:07.459Z,476
2018-06-24T02:07:17.198Z,492
2018-06-24T02:08:27.154Z,508
2018-06-24T02:09:37.162Z,524
2018-06-24T02:10:47.177Z,536
2018-06-24T02:11:56.917Z,548
2018-06-24T02:13:06.650Z,564
2018-06-24T02:14:16.645Z,584
2018-06-24T02:15:26.387Z,608
2018-06-24T02:16:36.123Z,636
2018-06-24T02:17:45.875Z,648
2018-06-24T02:18:55.883Z,660
2018-06-24T02:20:08.590Z,672
2018-06-24T02:21:18.333Z,692
2018-06-24T02:22:28.071Z,716
2018-06-24T02:23:37.541Z,744
2018-06-24T02:24:47.290Z,768
2018-06-24T02:25:56.764Z,796
2018-06-24T02:27:06.774Z,824
2018-06-24T02:28:16.784Z,844
2018-06-24T02:29:26.525Z,868
2018-06-24T02:30:36.341Z,888
2018-06-24T02:31:46.085Z,912
2018-06-24T02:32:55.832Z,940
2018-06-24T02:34:05.574Z,964
2018-06-24T02:35:15.320Z,992
2018-06-24T02:36:25.080Z,1020
2018-06-24T02:37:35.130Z,1048
2018-06-24T02:38:44.624Z,1068
2018-06-24T02:39:54.101Z,1108
2018-06-24T02:41:03.852Z,1140
2018-06-24T02:42:13.595Z,1172
2018-06-24T02:43:23.606Z,1208
2018-06-24T02:44:33.345Z,1232
2018-06-24T02:45:43.429Z,1264
2018-06-24T02:46:52.910Z,1288
2018-06-24T02:48:02.662Z,1308
2018-06-24T02:49:12.411Z,1332
2018-06-24T02:50:22.154Z,1344
2018-06-24T02:51:31.910Z,1356
2018-06-24T02:52:41.402Z,1364
2018-06-24T02:53:51.395Z,1380
2018-06-24T02:55:01.162Z,1392
2018-06-24T02:56:11.173Z,1412
2018-06-24T02:57:21.214Z,1432
2018-06-24T02:58:30.964Z,1456
2018-06-24T02:59:40.978Z,1480
2018-06-24T03:03:29.462Z,1572
2018-06-24T03:04:39.479Z,1612
2018-06-24T03:05:49.490Z,1668
2018-06-24T03:06:59.509Z,1716
2018-06-24T03:08:08.989Z,1764
2018-06-24T03:09:18.464Z,1808
2018-06-24T03:10:27.935Z,1852
2018-06-24T03:11:37.157Z,1888
2018-06-24T03:12:46.896Z,1920
2018-06-24T03:13:56.916Z,1952
2018-06-24T03:15:06.678Z,1984
2018-06-24T03:16:16.689Z,2036
2018-06-24T03:17:26.702Z,2080
2018-06-24T03:18:36.182Z,2120
2018-06-24T03:19:45.955Z,2164
2018-06-24T03:20:55.705Z,2200
2018-06-24T03:22:05.455Z,2236
2018-06-24T03:23:15.474Z,2268
2018-06-24T03:24:25.503Z,2284
2018-06-24T03:25:34.986Z,2296
2018-06-24T03:26:44.990Z,2296
2018-06-24T03:27:54.731Z,2300
2018-06-24T03:29:04.481Z,2300
2018-06-24T03:30:14.240Z,2308
2018-06-24T03:31:24.277Z,2312
2018-06-24T03:32:34.017Z,2308
2018-06-24T03:33:43.755Z,2296
2018-06-24T03:34:53.768Z,2288
2018-06-24T03:36:03.243Z,2280
2018-06-24T03:37:12.711Z,2280
2018-06-24T03:38:22.500Z,2292
2018-06-24T03:39:32.522Z,2312
2018-06-24T03:40:42.261Z,2344
2018-06-24T03:41:52.005Z,2392
2018-06-24T03:43:01.744Z,2452
2018-06-24T03:44:11.227Z,2508
2018-06-24T03:45:21.234Z,2552
2018-06-24T03:46:30.710Z,2580
2018-06-24T03:47:40.715Z,2596
2018-06-24T03:48:50.722Z,2588
2018-06-24T03:50:00.731Z,2568
2018-06-24T03:51:10.474Z,2560
2018-06-24T03:52:20.211Z,2576
2018-06-24T03:53:30.223Z,2600
2018-06-24T03:54:39.958Z,2612
2018-06-24T03:55:49.961Z,2624
2018-06-24T03:56:59.967Z,2632
2018-06-24T03:58:09.928Z,2640
2018-06-24T03:59:20.156Z,2648
2018-06-24T04:00:30.167Z,2660
2018-06-24T04:01:40.183Z,2676
2018-06-24T04:02:50.193Z,2692
2018-06-24T04:04:00.203Z,2716
2018-06-24T04:05:09.683Z,2740
2018-06-24T04:06:19.695Z,2772
2018-06-24T04:07:29.458Z,2784
2018-06-24T04:08:39.467Z,2772
2018-06-24T04:09:49.476Z,2740
2018-06-24T04:10:59.501Z,2700
2018-06-24T04:12:09.512Z,2664
2018-06-24T04:13:19.260Z,2620
2018-06-24T04:14:29.000Z,2572
2018-06-24T04:15:38.746Z,2536
2018-06-24T04:16:48.488Z,2504
2018-06-24T04:17:58.495Z,2480
2018-06-24T04:19:08.503Z,2480
2018-06-24T04:20:18.516Z,2480
2018-06-24T04:21:28.525Z,2484
2018-06-24T04:22:38.540Z,2484
2018-06-24T04:23:48.546Z,2500
2018-06-24T04:24:58.560Z,2508
2018-06-24T04:26:08.324Z,2520
2018-06-24T04:27:18.335Z,2536
2018-06-24T04:28:27.811Z,2552
2018-06-24T04:29:37.825Z,2560
2018-06-24T04:30:47.294Z,2556
2018-06-24T04:31:56.770Z,2544
2018-06-24T04:33:06.254Z,2536
2018-06-24T04:34:16.269Z,2532
2018-06-24T04:35:25.477Z,2536
2018-06-24T04:36:35.219Z,2548
2018-06-24T04:37:44.967Z,2568
2018-06-24T04:38:54.981Z,2588
2018-06-24T04:40:04.459Z,2604
2018-06-24T04:41:14.466Z,2612
2018-06-24T04:42:24.229Z,2620
2018-06-24T04:43:33.969Z,2632
2018-06-24T04:44:43.978Z,2640
2018-06-24T04:45:53.988Z,2648
2018-06-24T04:47:03.729Z,2652
2018-06-24T04:48:13.740Z,2656
2018-06-24T04:49:23.477Z,2664
2018-06-24T04:50:33.007Z,2664
2018-06-24T04:51:43.286Z,2664
2018-06-24T04:52:53.542Z,2660
2018-06-24T04:54:03.546Z,2660
2018-06-24T04:55:13.024Z,2660
2018-06-24T04:56:22.765Z,2660
2018-06-24T04:57:32.774Z,2664
2018-06-24T04:58:42.516Z,2660
2018-06-24T04:59:52.527Z,2656
2018-06-24T05:01:02.272Z,2656
2018-06-24T05:02:12.013Z,2656
2018-06-24T05:03:22.021Z,2656
2018-06-24T05:04:31.769Z,2648
2018-06-24T05:05:41.514Z,2652
2018-06-24T05:06:51.258Z,2648
2018-06-24T05:08:00.736Z,2644
2018-06-24T05:09:10.221Z,2640
2018-06-24T05:10:20.228Z,2652
2018-06-24T05:11:29.968Z,2668
2018-06-24T05:12:39.719Z,2664
2018-06-24T05:13:49.722Z,2648
2018-06-24T05:14:59.468Z,2680
2018-06-24T05:16:08.949Z,2684
2018-06-24T05:17:18.955Z,2716
2018-06-24T05:18:28.961Z,2720
2018-06-24T05:19:38.967Z,2720
2018-06-24T05:20:48.717Z,2720
2018-06-24T05:21:58.729Z,2712
2018-06-24T05:23:08.472Z,2692
2018-06-24T05:24:18.217Z,2688
2018-06-24T05:25:27.692Z,2704
2018-06-24T05:26:37.166Z,2760
2018-06-24T05:27:47.268Z,2768
2018-06-24T05:28:57.279Z,2780
2018-06-24T05:30:07.353Z,2792
2018-06-24T05:31:17.364Z,2800
2018-06-24T05:32:27.100Z,2808
2018-06-24T05:33:36.843Z,2816
2018-06-24T05:34:46.584Z,2820
2018-06-24T05:35:56.591Z,2828
2018-06-24T05:37:06.332Z,2828
2018-06-24T05:38:16.341Z,2832
2018-06-24T05:39:26.351Z,2840
2018-06-24T05:40:36.093Z,2844
2018-06-24T05:41:45.835Z,2852
2018-06-24T05:42:55.583Z,2868
2018-06-24T05:44:05.159Z,2880
2018-06-24T05:45:14.900Z,2884
2018-06-24T05:46:24.919Z,2896
2018-06-24T05:47:34.927Z,2912
2018-06-24T05:48:45.027Z,2932
2018-06-24T05:49:55.111Z,2940
2018-06-24T05:51:04.587Z,2944
2018-06-24T05:52:14.328Z,2960
2018-06-24T05:53:24.064Z,2972
2018-06-24T05:54:33.814Z,2984
2018-06-24T05:55:43.556Z,3004
2018-06-24T05:56:53.584Z,3020
2018-06-24T05:58:03.065Z,3028
2018-06-24T05:59:12.539Z,3024
2018-06-24T06:00:22.551Z,3016
2018-06-24T06:01:32.291Z,3012
2018-06-24T06:02:42.310Z,3016
2018-06-24T06:03:52.313Z,3036
2018-06-24T06:05:02.332Z,3048
2018-06-24T06:06:11.542Z,3044
2018-06-24T06:07:21.554Z,3036
2018-06-24T06:08:31.297Z,3048
2018-06-24T06:09:40.772Z,3068
2018-06-24T06:10:50.514Z,3116
2018-06-24T06:12:00.541Z,3184
2018-06-24T06:13:10.293Z,3284
2018-06-24T06:14:20.303Z,3432
2018-06-24T06:15:30.042Z,3632
2018-06-24T06:16:40.054Z,3892
2018-06-24T06:17:50.063Z,4192
2018-06-24T06:19:00.070Z,4408
2018-06-24T06:20:10.099Z,4492
2018-06-24T06:21:20.113Z,4548
2018-06-24T06:22:30.123Z,4540
2018-06-24T06:23:39.867Z,4512
2018-06-24T06:24:49.875Z,4484
2018-06-24T06:25:59.883Z,4484
2018-06-24T06:27:09.628Z,4516
2018-06-24T06:28:19.375Z,4568
2018-06-24T06:29:28.890Z,4628
2018-06-24T06:30:38.902Z,4712
2018-06-24T06:31:48.914Z,4804
2018-06-24T06:32:58.662Z,4904
2018-06-24T06:34:07.878Z,4976
2018-06-24T06:35:17.626Z,5036
2018-06-24T06:36:27.380Z,5116
2018-06-24T06:37:37.398Z,5204
2018-06-24T06:38:47.416Z,5328
2018-06-24T06:39:57.436Z,5536
2018-06-24T06:41:06.904Z,5748
2018-06-24T06:42:16.920Z,5952
2018-06-24T06:43:26.660Z,6176
2018-06-24T06:44:36.485Z,6392
2018-06-24T06:45:47.988Z,6604
2018-06-24T06:46:58.324Z,6804
2018-06-24T06:48:08.073Z,6940
2018-06-24T06:49:17.816Z,7048
2018-06-24T06:50:27.024Z,7168
2018-06-24T06:51:37.040Z,7216
2018-06-24T06:52:46.785Z,7216
2018-06-24T06:53:56.796Z,7144
2018-06-24T06:55:06.540Z,7076
2018-06-24T06:56:16.289Z,7032
2018-06-24T06:57:26.306Z,6944
2018-06-24T06:58:36.320Z,6600
2018-06-24T06:59:45.530Z,6720
2018-06-24T07:00:55.541Z,6704
2018-06-24T07:02:05.023Z,6472
2018-06-24T07:03:14.779Z,6296
2018-06-24T07:04:24.312Z,6152
2018-06-24T07:05:34.067Z,5960
2018-06-24T07:06:43.817Z,5568
2018-06-24T07:07:53.838Z,5224
2018-06-24T07:09:03.849Z,4888
2018-06-24T07:10:13.865Z,4632
2018-06-24T07:11:23.616Z,4492
2018-06-24T07:12:33.364Z,4280
2018-06-24T07:13:43.375Z,4072
2018-06-24T07:14:52.850Z,3920
2018-06-24T07:16:02.329Z,3736
2018-06-24T07:17:12.342Z,3592
2018-06-24T07:18:22.360Z,3560
2018-06-24T07:19:32.373Z,3552
2018-06-24T07:20:41.849Z,3572
2018-06-24T07:21:51.594Z,3628
2018-06-24T07:23:01.606Z,3696
2018-06-24T07:24:11.628Z,3756
2018-06-24T07:25:21.637Z,3740
2018-06-24T07:26:31.645Z,3680
2018-06-24T07:27:41.513Z,3816
2018-06-24T07:28:51.608Z,3948
2018-06-24T07:30:01.621Z,4056
2018-06-24T07:31:11.377Z,4060
2018-06-24T07:32:21.378Z,4028
2018-06-24T07:33:31.927Z,4184
2018-06-24T07:34:41.538Z,4180
2018-06-24T07:35:51.281Z,4276
2018-06-24T07:37:01.292Z,4336
2018-06-24T07:38:11.039Z,4408
2018-06-24T07:39:21.044Z,4520
2018-06-24T07:40:30.531Z,4616
2018-06-24T07:41:40.546Z,4712
2018-06-24T07:42:50.562Z,4808
2018-06-24T07:44:00.575Z,4944
2018-06-24T07:45:10.590Z,5176
2018-06-24T07:46:20.601Z,5552
2018-06-24T07:47:30.364Z,6072
2018-06-24T07:48:40.374Z,6520
2018-06-24T07:49:50.380Z,6960
2018-06-24T07:51:00.130Z,7620
2018-06-24T07:52:10.140Z,8000
2018-06-24T07:53:19.887Z,8380
2018-06-24T07:54:29.626Z,8716
2018-06-24T07:55:39.117Z,8992
2018-06-24T07:56:49.125Z,9232
2018-06-24T07:57:59.143Z,9504
2018-06-24T07:59:09.161Z,9524
2018-06-24T08:00:19.172Z,9984
2018-06-24T08:01:28.916Z,10328
2018-06-24T08:02:38.942Z,10800
2018-06-24T08:03:48.425Z,11256
2018-06-24T08:04:58.170Z,11556
2018-06-24T08:06:08.198Z,11884
2018-06-24T08:07:18.216Z,12092
2018-06-24T08:08:28.015Z,12044
2018-06-24T08:09:38.033Z,12100
2018-06-24T08:10:48.059Z,12072
2018-06-24T08:11:58.091Z,11876
2018-06-24T08:13:08.151Z,11680
2018-06-24T08:14:17.897Z,11436
2018-06-24T08:15:27.644Z,11332
2018-06-24T08:16:37.661Z,11516
2018-06-24T08:17:47.138Z,11348
2018-06-24T08:18:56.884Z,11188
2018-06-24T08:20:06.933Z,10956
2018-06-24T08:21:16.948Z,10824
2018-06-24T08:22:26.962Z,10852
2018-06-24T08:23:36.975Z,10724
2018-06-24T08:24:47.035Z,10460
2018-06-24T08:25:56.787Z,10172
2018-06-24T08:27:06.537Z,10064
2018-06-24T08:28:16.014Z,9884
2018-06-24T08:29:26.023Z,9832
2018-06-24T08:30:35.772Z,9552
2018-06-24T08:31:45.946Z,9388
2018-06-24T08:32:55.612Z,9452
2018-06-24T08:34:05.360Z,9448
2018-06-24T08:35:15.111Z,9448
2018-06-24T08:36:24.857Z,9424
2018-06-24T08:37:34.878Z,9432
2018-06-24T08:38:44.892Z,9480
2018-06-24T08:39:54.916Z,9564
2018-06-24T08:41:04.927Z,9680
2018-06-24T08:42:14.405Z,9760
2018-06-24T08:43:24.157Z,9772
2018-06-24T08:44:33.682Z,9712
2018-06-24T08:45:43.700Z,9572
2018-06-24T08:46:53.476Z,9484
2018-06-24T08:48:03.216Z,9496
2018-06-24T08:49:12.433Z,9540
2018-06-24T08:50:21.911Z,9560
2018-06-24T08:51:31.927Z,9516
2018-06-24T08:52:41.674Z,9372
2018-06-24T08:53:51.426Z,9260
2018-06-24T08:55:01.445Z,9036
2018-06-24T08:56:11.187Z,8848
2018-06-24T08:57:20.950Z,8752
2018-06-24T08:58:30.967Z,8664
2018-06-24T08:59:40.719Z,8584
2018-06-24T09:00:50.828Z,8620
2018-06-24T09:02:00.865Z,8512
2018-06-24T09:03:10.876Z,8488
2018-06-24T09:04:20.888Z,8644
2018-06-24T09:05:30.919Z,8808
2018-06-24T09:06:40.665Z,8872
2018-06-24T09:07:50.690Z,8964
2018-06-24T09:09:00.705Z,9140
2018-06-24T09:10:09.930Z,9376
2018-06-24T09:11:19.680Z,9536
2018-06-24T09:12:29.161Z,9656
2018-06-24T09:13:39.308Z,9696
2018-06-24T09:14:49.350Z,9708
2018-06-24T09:15:59.590Z,9612
2018-06-24T09:17:09.711Z,9484
2018-06-24T09:18:19.455Z,9404
2018-06-24T09:19:29.211Z,9248
2018-06-24T09:20:39.230Z,9076
2018-06-24T09:21:49.252Z,8924
2018-06-24T09:22:59.269Z,8788
2018-06-24T09:24:09.311Z,8676
2018-06-24T09:25:19.066Z,8708
2018-06-24T09:26:29.079Z,8744
2018-06-24T09:27:39.189Z,8736
2018-06-24T09:28:49.082Z,8652
2018-06-24T09:29:58.828Z,8616
2018-06-24T09:31:08.303Z,8476
2018-06-24T09:32:18.050Z,8504
2018-06-24T09:33:28.065Z,8404
2018-06-24T09:34:37.542Z,8276
2018-06-24T09:35:47.567Z,8168
2018-06-24T09:36:57.585Z,8060
2018-06-24T09:38:07.333Z,8000
2018-06-24T09:39:17.344Z,7940
2018-06-24T09:40:27.357Z,7944
2018-06-24T09:41:37.379Z,8012
2018-06-24T09:42:46.859Z,8132
2018-06-24T09:43:56.872Z,8248
2018-06-24T09:45:06.355Z,8368
2018-06-24T09:46:15.837Z,8496
2018-06-24T09:47:25.323Z,8584
2018-06-24T09:48:35.070Z,8612
2018-06-24T09:49:44.826Z,8648
2018-06-24T09:50:54.842Z,8632
2018-06-24T09:52:04.320Z,8592
2018-06-24T09:53:14.336Z,8612
2018-06-24T09:54:24.352Z,8556
2018-06-24T09:55:34.377Z,8528
2018-06-24T09:56:44.390Z,8432
2018-06-24T09:57:53.873Z,8424
2018-06-24T09:59:03.899Z,8396
2018-06-24T10:00:13.385Z,8340
2018-06-24T10:01:23.395Z,8260
2018-06-24T10:02:33.140Z,8180
2018-06-24T10:03:43.179Z,8032
2018-06-24T10:04:53.217Z,7972
2018-06-24T10:06:02.971Z,7972
2018-06-24T10:07:12.727Z,7976
2018-06-24T10:08:22.480Z,8080
2018-06-24T10:09:32.225Z,8224
2018-06-24T10:10:41.706Z,8412
2018-06-24T10:11:51.720Z,8560
2018-06-24T10:13:01.740Z,8664
2018-06-24T10:14:11.219Z,8912
2018-06-24T10:15:20.704Z,9132
2018-06-24T10:16:30.450Z,9360
2018-06-24T10:17:40.582Z,9640
2018-06-24T10:18:50.332Z,9940
2018-06-24T10:20:00.727Z,10268
2018-06-24T10:21:10.543Z,10568
2018-06-24T10:22:20.556Z,10912
2018-06-24T10:23:30.573Z,11312
2018-06-24T10:24:40.052Z,11696
2018-06-24T10:25:49.807Z,11996
2018-06-24T10:26:59.555Z,12272
2018-06-24T10:28:09.312Z,12516
2018-06-24T10:29:19.068Z,12688
2018-06-24T10:30:29.116Z,12752
2018-06-24T10:31:38.600Z,12876
2018-06-24T10:32:48.346Z,12976
2018-06-24T10:33:57.828Z,13124
2018-06-24T10:35:07.582Z,13312
2018-06-24T10:36:17.067Z,13488
2018-06-24T10:37:30.539Z,13800
2018-06-24T10:38:40.288Z,14100
2018-06-24T10:39:50.298Z,14408
2018-06-24T10:41:00.313Z,14776
2018-06-24T10:42:10.383Z,15260
2018-06-24T10:43:20.408Z,15668
2018-06-24T10:44:30.422Z,16192
2018-06-24T10:45:40.171Z,16480
2018-06-24T10:46:49.388Z,16928
2018-06-24T10:47:58.870Z,17056
2018-06-24T10:49:08.893Z,17120
2018-06-24T10:50:18.642Z,17280
2018-06-24T10:51:28.654Z,17312
2018-06-24T10:52:38.672Z,17312
2018-06-24T10:53:48.156Z,17248
2018-06-24T10:54:58.186Z,17216
2018-06-24T10:56:07.941Z,17248
2018-06-24T10:57:17.427Z,17120
2018-06-24T10:58:27.178Z,17216
2018-06-24T10:59:37.197Z,17472
2018-06-24T11:00:46.682Z,17632
2018-06-24T11:01:56.215Z,17696
2018-06-24T11:03:05.973Z,17952
2018-06-24T11:04:15.727Z,18240
2018-06-24T11:05:25.482Z,18528
2018-06-24T11:06:38.837Z,18784
2018-06-24T11:07:48.586Z,19200
2018-06-24T11:08:58.605Z,19328
2018-06-24T11:10:08.089Z,19616
2018-06-24T11:11:17.573Z,19744
2018-06-24T11:12:27.321Z,19904
2018-06-24T11:13:37.333Z,19840
2018-06-24T11:14:47.080Z,19936
2018-06-24T11:15:56.563Z,20160
2018-06-24T11:17:06.311Z,20608
2018-06-24T11:18:15.801Z,20896
2018-06-24T11:19:25.558Z,20896
2018-06-24T11:20:35.310Z,20896
2018-06-24T11:21:45.126Z,20960
2018-06-24T11:22:54.921Z,20896
2018-06-24T11:24:04.676Z,20992
2018-06-24T11:25:13.897Z,21088
2018-06-24T11:26:23.647Z,21152
2018-06-24T11:27:33.131Z,21056
2018-06-24T11:28:43.141Z,20992
2018-06-24T11:29:53.152Z,20864
2018-06-24T11:31:03.046Z,20992
2018-06-24T11:32:12.869Z,21248
2018-06-24T11:33:22.885Z,21568
2018-06-24T11:34:32.638Z,21792
2018-06-24T11:35:42.405Z,22112
2018-06-24T11:36:52.442Z,22560
2018-06-24T11:38:02.484Z,23200
2018-06-24T11:39:12.506Z,24288
2018-06-24T11:40:21.994Z,26912
2018-06-24T11:41:31.745Z,35456
2018-06-24T11:42:41.231Z,42720
2018-06-24T11:43:51.000Z,44864
2018-06-24T11:45:01.051Z,44064
2018-06-24T11:46:10.826Z,43488
2018-06-24T11:47:20.845Z,41920
2018-06-24T11:48:30.864Z,42624
2018-06-24T11:49:40.349Z,42752
2018-06-24T11:50:50.366Z,42912
2018-06-24T11:52:00.169Z,45664
2018-06-24T11:53:10.190Z,44832
2018-06-24T11:54:19.948Z,46112
2018-06-24T11:55:29.435Z,47136
2018-06-24T11:56:38.928Z,46656
2018-06-24T11:57:48.947Z,45888
2018-06-24T11:58:58.706Z,46272
2018-06-24T12:00:08.476Z,43616
2018-06-24T12:01:18.522Z,48896
2018-06-24T12:02:28.343Z,45888
2018-06-24T12:03:38.197Z,47392
2018-06-24T12:04:48.220Z,49408
2018-06-24T12:05:57.704Z,54528
2018-06-24T12:07:07.470Z,50080
2018-06-24T12:08:16.961Z,56224
2018-06-24T12:09:26.981Z,57504
2018-06-24T12:10:36.470Z,58432
2018-06-24T12:11:46.226Z,59424
2018-06-24T12:12:56.251Z,59744
2018-06-24T12:14:06.277Z,60480
2018-06-24T12:15:16.085Z,53920
2018-06-24T12:16:25.848Z,48288
2018-06-24T12:17:35.613Z,45056
2018-06-24T12:18:45.369Z,44416
2018-06-24T12:19:54.599Z,41440
2018-06-24T12:21:04.617Z,38144
2018-06-24T12:22:14.102Z,40416
2018-06-24T12:23:23.857Z,39200
2018-06-24T12:24:33.616Z,37120
2018-06-24T12:25:43.638Z,36128
2018-06-24T12:26:53.405Z,38144
2018-06-24T12:28:03.160Z,38400
2018-06-24T12:29:12.915Z,38400
2018-06-24T12:30:22.941Z,43808
2018-06-24T12:31:32.962Z,42368
2018-06-24T12:32:42.718Z,42176
2018-06-24T12:33:52.212Z,40640
2018-06-24T12:35:02.235Z,39328
2018-06-24T12:36:11.729Z,38592
2018-06-24T12:37:21.548Z,38944
2018-06-24T12:38:31.661Z,41536
2018-06-24T12:39:41.701Z,44608
2018-06-24T12:40:51.721Z,44736
2018-06-24T12:42:01.480Z,44352
2018-06-24T12:43:11.510Z,41664
2018-06-24T12:44:21.535Z,42336
2018-06-24T12:45:31.034Z,41920
2018-06-24T12:46:40.793Z,41088
2018-06-24T12:47:50.814Z,41056
2018-06-24T12:49:00.582Z,39424
2018-06-24T12:50:10.346Z,38688
2018-06-24T12:51:20.374Z,37504
2018-06-24T12:52:29.861Z,38944
2018-06-24T12:53:39.624Z,38976
2018-06-24T12:54:49.115Z,39584
2018-06-24T12:55:58.872Z,41216
2018-06-24T12:57:08.643Z,43296
2018-06-24T12:58:19.213Z,42816
2018-06-24T12:59:30.714Z,41760
2018-06-24T13:00:44.894Z,38080
2018-06-24T13:01:55.778Z,38432
2018-06-24T13:03:05.264Z,39072
2018-06-24T13:04:14.755Z,40480
2018-06-24T13:05:24.566Z,38976
2018-06-24T13:06:34.730Z,41984
2018-06-24T13:07:44.759Z,41664
2018-06-24T13:08:54.512Z,39360
2018-06-24T13:10:04.282Z,37856
2018-06-24T13:11:14.308Z,39072
2018-06-24T13:12:24.329Z,37184
2018-06-24T13:13:34.360Z,36800
2018-06-24T13:14:44.383Z,35744
2018-06-24T13:15:54.407Z,37216
2018-06-24T13:17:04.165Z,40768
2018-06-24T13:18:13.662Z,39424
2018-06-24T13:19:23.156Z,40576
2018-06-24T13:20:32.643Z,41248
2018-06-24T13:21:42.688Z,37952
2018-06-24T13:22:52.774Z,39552
2018-06-24T13:24:02.533Z,39840
2018-06-24T13:25:12.300Z,35552
2018-06-24T13:26:22.327Z,36576
2018-06-24T13:27:32.084Z,37408
2018-06-24T13:28:41.842Z,32288
2018-06-24T13:29:51.861Z,31328
2018-06-24T13:31:01.886Z,30304
2018-06-24T13:32:11.601Z,29344
2018-06-24T13:33:21.411Z,27744
2018-06-24T13:34:31.167Z,27840
2018-06-24T13:35:41.187Z,27936
2018-06-24T13:36:50.943Z,27840
2018-06-24T13:38:00.962Z,30336
2018-06-24T13:39:10.990Z,30208
2018-06-24T13:40:21.276Z,31584
2018-06-24T13:41:31.116Z,30976
2018-06-24T13:42:40.337Z,30880
2018-06-24T13:43:49.829Z,31104
2018-06-24T13:44:59.578Z,30336
2018-06-24T13:46:09.068Z,28800
2018-06-24T13:47:18.826Z,28000
2018-06-24T13:48:28.586Z,27776
2018-06-24T13:49:38.610Z,27872
2018-06-24T13:50:48.635Z,27424
2018-06-24T13:51:58.119Z,27456
2018-06-24T13:53:07.874Z,30080
2018-06-24T13:54:17.634Z,30944
2018-06-24T13:55:27.389Z,31456
2018-06-24T13:56:36.872Z,30816
2018-06-24T13:57:46.631Z,29888
2018-06-24T13:58:56.651Z,30432
2018-06-24T14:00:06.734Z,28960
2018-06-24T14:01:16.492Z,29760
2018-06-24T14:02:26.247Z,29728
2018-06-24T14:03:36.007Z,28960
2018-06-24T14:04:45.492Z,28704
2018-06-24T14:05:55.000Z,28256
2018-06-24T14:07:04.774Z,29984
2018-06-24T14:08:14.531Z,28192
2018-06-24T14:09:24.024Z,25792
2018-06-24T14:10:34.045Z,24416
2018-06-24T14:11:43.801Z,23232
2018-06-24T14:12:53.825Z,23360
2018-06-24T14:14:03.802Z,23936
2018-06-24T14:15:14.020Z,23168
2018-06-24T14:16:24.039Z,24192
2018-06-24T14:17:33.525Z,27648
2018-06-24T14:18:43.282Z,28352
2018-06-24T14:19:53.300Z,27680
2018-06-24T14:21:03.322Z,28672
2018-06-24T14:22:12.818Z,30752
2018-06-24T14:23:23.338Z,31552
2018-06-24T14:24:33.141Z,34880
2018-06-24T14:25:42.908Z,31616
2018-06-24T14:26:52.674Z,30560
2018-06-24T14:28:02.754Z,29120
2018-06-24T14:29:12.512Z,31232
2018-06-24T14:30:22.007Z,34304
2018-06-24T14:31:31.495Z,34144
2018-06-24T14:32:41.262Z,32928
2018-06-24T14:33:51.015Z,28320
2018-06-24T14:35:01.035Z,28288
2018-06-24T14:36:11.061Z,30016
2018-06-24T14:37:20.825Z,28704
2018-06-24T14:38:30.856Z,28608
2018-06-24T14:39:40.610Z,29344
2018-06-24T14:40:50.635Z,29728
2018-06-24T14:42:00.441Z,31936
2018-06-24T14:43:10.195Z,34400
2018-06-24T14:44:20.222Z,34560
2018-06-24T14:45:29.985Z,37088
2018-06-24T14:46:39.999Z,39584
2018-06-24T14:47:49.757Z,39488
2018-06-24T14:48:59.777Z,39776
2018-06-24T14:50:09.531Z,37792
2018-06-24T14:51:19.549Z,41088
2018-06-24T14:52:29.574Z,46240
2018-06-24T14:53:39.329Z,47392
2018-06-24T14:54:49.086Z,42368
2018-06-24T14:55:58.844Z,45568
2018-06-24T14:57:08.069Z,45376
2018-06-24T14:58:17.824Z,39488
2018-06-24T14:59:27.585Z,41760
2018-06-24T15:00:37.606Z,46880
2018-06-24T15:01:47.946Z,42784
2018-06-24T15:02:57.295Z,46368
2018-06-24T15:04:07.049Z,45920
2018-06-24T15:05:16.810Z,49088
2018-06-24T15:06:26.843Z,44192
2018-06-24T15:07:36.877Z,51648
2018-06-24T15:08:46.645Z,33696
2018-06-24T15:09:56.399Z,36896
2018-06-24T15:11:05.889Z,34752
2018-06-24T15:12:15.924Z,38048
2018-06-24T15:13:25.754Z,36128
2018-06-24T15:14:35.776Z,33600
2018-06-24T15:15:45.534Z,33312
2018-06-24T15:16:55.023Z,31232
2018-06-24T15:18:04.784Z,31904
2018-06-24T15:19:14.812Z,30560
2018-06-24T15:20:24.568Z,28096
2018-06-24T15:21:34.326Z,28032
2018-06-24T15:22:44.084Z,36704
2018-06-24T15:23:53.840Z,42208
2018-06-24T15:25:03.642Z,46048
2018-06-24T15:26:13.665Z,43648
2018-06-24T15:27:23.691Z,37472
2018-06-24T15:28:33.452Z,29120
2018-06-24T15:29:43.488Z,27008
2018-06-24T15:30:53.232Z,24864